Main page
METAR-TAF:

METAR-TAF

Airports :

Euro, Netherlands

Oil platform

latitude: 51-59-52N, longitude: 3-16-30E, elevation: 18 m

Current weather observation

The report was made 17 minutes ago, at 01:55 UTC
Wind 20 kt from the West/Northwest
Temperature 7°C
Humidity 76%
Pressure 1019 hPa
Visibility 10 km or more

METAR: EHSA 170155Z AUTO 30020KT 9999 ///////// 07/03 Q1019 REDZ W09/H19

Time: 03:12 (02:12 UTC)


TAF: missing

Weather observations and forecasts of more than 4000 airports (METAR and TAF reports).

The available stations are represented by yellow and red dots on the map.

Hover mouse over dot to see the name of the station.

Then click to see weather observations and forecasts.

To change the map : click on the green buttons with a black cross to zoom in, on the green button with a dash to zoom out, or on the green arrows for adjacent maps.


METAR-TAF: